METAR Data
IDs: Format: Raw Decoded Include TAF

Data at: 0218 UTC 19 Feb 2019

METAR for:KIAH (Houston/Bush Intl, TX, US)
Text:KIAH 190153Z 05012KT 10SM SCT090 BKN250 13/02 A3015 RMK AO2 SLP209 T01330022
Temperature: 13.3°C ( 56°F)
Dewpoint: 2.2°C ( 36°F) [RH = 47%]
Pressure (altimeter):30.15 inches Hg (1021.1 mb) [Sea level pressure: 1020.9 mb]
Winds:from the NE (50 degrees) at 14 MPH (12 knots; 6.2 m/s)
Visibility:10 or more sm (16+ km)
Ceiling:25000 feet AGL
Clouds: scattered clouds at 9000 feet AGL, broken clouds at 25000 feet AGL

METAR for:KHOU (Houston/Hobby Arpt, TX, US)
Text:KHOU 190153Z 04013KT 10SM SCT250 14/02 A3012 RMK AO2 SLP204 T01440017
Temperature: 14.4°C ( 58°F)
Dewpoint: 1.7°C ( 35°F) [RH = 42%]
Pressure (altimeter):30.12 inches Hg (1020.1 mb) [Sea level pressure: 1020.4 mb]
Winds:from the NE (40 degrees) at 15 MPH (13 knots; 6.7 m/s)
Visibility:10 or more sm (16+ km)
Ceiling:at least 12,000 feet AGL
Clouds: scattered clouds at 25000 feet AGL

METAR for:KGLS (Galveston/Scholes In, TX, US)
Text:KGLS 190152Z AUTO 05013G23KT 10SM BKN043 OVC055 15/03 A3011 RMK AO2 SLP197 T01500033
Temperature: 15.0°C ( 59°F)
Dewpoint: 3.3°C ( 38°F) [RH = 45%]
Pressure (altimeter):30.11 inches Hg (1019.7 mb) [Sea level pressure: 1019.7 mb]
Winds:from the NE (50 degrees) at 15 MPH (13 knots; 6.7 m/s) gusting to 26 MPH (23 knots; 11.8 m/s)
Visibility:10 or more sm (16+ km)
Ceiling:4300 feet AGL
Clouds: broken clouds at 4300 feet AGL, overcast cloud deck at 5500 feet AGL
QC Flag:automated observation with no human augmentation

METAR for:KLVJ (Houston/Pearland Rgn, TX, US)
Text:KLVJ 190153Z AUTO 05011KT 10SM BKN100 15/01 A3013 RMK AO2 SLP202 T01500006
Temperature: 15.0°C ( 59°F)
Dewpoint: 0.6°C ( 33°F) [RH = 37%]
Pressure (altimeter):30.13 inches Hg (1020.4 mb) [Sea level pressure: 1020.2 mb]
Winds:from the NE (50 degrees) at 13 MPH (11 knots; 5.7 m/s)
Visibility:10 or more sm (16+ km)
Ceiling:10000 feet AGL
Clouds: broken clouds at 10000 feet AGL
QC Flag:automated observation with no human augmentation

METAR for:KSGR (Houston/Sugar Land R, TX, US)
Text:KSGR 190153Z 04011KT 10SM CLR 15/03 A3012 RMK AO2 SLP200 T01500028
Temperature: 15.0°C ( 59°F)
Dewpoint: 2.8°C ( 37°F) [RH = 44%]
Pressure (altimeter):30.12 inches Hg (1020.1 mb) [Sea level pressure: 1020.0 mb]
Winds:from the NE (40 degrees) at 13 MPH (11 knots; 5.7 m/s)
Visibility:10 or more sm (16+ km)
Ceiling:at least 12,000 feet AGL
Clouds:sky clear below 12,000 feet AGL

METAR for:KDWH (Houston/Hooks Mem, TX, US)
Text:KDWH 190153Z 05007KT 10SM OVC080 13/01 A3015 RMK AO2 SLP210 T01280006
Temperature: 12.8°C ( 55°F)
Dewpoint: 0.6°C ( 33°F) [RH = 43%]
Pressure (altimeter):30.15 inches Hg (1021.1 mb) [Sea level pressure: 1021.0 mb]
Winds:from the NE (50 degrees) at 8 MPH (7 knots; 3.6 m/s)
Visibility:10 or more sm (16+ km)
Ceiling:8000 feet AGL
Clouds: overcast cloud deck at 8000 feet AGL

METAR for:KCLL (College Station/East, TX, US)
Text:KCLL 190153Z 03009KT 10SM FEW075 12/02 A3017 RMK AO2 SLP216 T01220022
Temperature: 12.2°C ( 54°F)
Dewpoint: 2.2°C ( 36°F) [RH = 50%]
Pressure (altimeter):30.17 inches Hg (1021.8 mb) [Sea level pressure: 1021.6 mb]
Winds:from the NNE (30 degrees) at 10 MPH (9 knots; 4.6 m/s)
Visibility:10 or more sm (16+ km)
Ceiling:at least 12,000 feet AGL
Clouds: few clouds at 7500 feet AGL

METAR for:KUTS (Huntsville Muni, TX, US)
Text:KUTS 190153Z AUTO 07008KT 10SM CLR 11/M01 A3018 RMK AO2 SLP218 T01061011
Temperature: 10.6°C ( 51°F)
Dewpoint: -1.1°C ( 30°F) [RH = 44%]
Pressure (altimeter):30.18 inches Hg (1022.1 mb) [Sea level pressure: 1021.8 mb]
Winds:from the ENE (70 degrees) at 9 MPH (8 knots; 4.1 m/s)
Visibility:10 or more sm (16+ km)
Ceiling:at least 12,000 feet AGL
Clouds:sky clear below 12,000 feet AGL
QC Flag:automated observation with no human augmentation

METAR for:KCXO (Conroe/Executive Arp, TX, US)
Text:KCXO 190153Z 06007KT 10SM CLR 12/01 A3017 RMK AO2 SLP214 T01170006
Temperature: 11.7°C ( 53°F)
Dewpoint: 0.6°C ( 33°F) [RH = 46%]
Pressure (altimeter):30.17 inches Hg (1021.8 mb) [Sea level pressure: 1021.4 mb]
Winds:from the ENE (60 degrees) at 8 MPH (7 knots; 3.6 m/s)
Visibility:10 or more sm (16+ km)
Ceiling:at least 12,000 feet AGL
Clouds:sky clear below 12,000 feet AGL

METAR for:KLBX (Angleton/Texas Gulf, TX, US)
Text:KLBX 190153Z AUTO 06005KT 10SM OVC043 14/06 A3010 RMK AO2 SLP194 T01440056
Temperature: 14.4°C ( 58°F)
Dewpoint: 5.6°C ( 42°F) [RH = 55%]
Pressure (altimeter):30.10 inches Hg (1019.4 mb) [Sea level pressure: 1019.4 mb]
Winds:from the ENE (60 degrees) at 6 MPH (5 knots; 2.6 m/s)
Visibility:10 or more sm (16+ km)
Ceiling:4300 feet AGL
Clouds: overcast cloud deck at 4300 feet AGL
QC Flag:automated observation with no human augmentation

METAR for:KPSX (Palacios Muni, TX, US)
Text:KPSX 190153Z AUTO 05009KT 10SM OVC036 16/04 A3009 RMK AO2 SLP188 T01610044
Temperature: 16.1°C ( 61°F)
Dewpoint: 4.4°C ( 40°F) [RH = 46%]
Pressure (altimeter):30.09 inches Hg (1019.0 mb) [Sea level pressure: 1018.8 mb]
Winds:from the NE (50 degrees) at 10 MPH (9 knots; 4.6 m/s)
Visibility:10 or more sm (16+ km)
Ceiling:3600 feet AGL
Clouds: overcast cloud deck at 3600 feet AGL
QC Flag:automated observation with no human augmentation